sensor_id;sensor_type;location;lat;lon;timestamp;temperature;humidity
82231;DHT22;71832;45.138;9.816;2023-12-22T00:01:52;3.70;98.10
82231;DHT22;71832;45.138;9.816;2023-12-22T00:04:20;3.70;98.40
82231;DHT22;71832;45.138;9.816;2023-12-22T00:06:48;3.70;98.80
82231;DHT22;71832;45.138;9.816;2023-12-22T00:09:15;3.70;99.10
82231;DHT22;71832;45.138;9.816;2023-12-22T00:11:43;3.60;99.40
82231;DHT22;71832;45.138;9.816;2023-12-22T00:14:11;3.60;99.70
82231;DHT22;71832;45.138;9.816;2023-12-22T00:16:40;3.60;99.80
82231;DHT22;71832;45.138;9.816;2023-12-22T00:19:08;3.50;99.90
82231;DHT22;71832;45.138;9.816;2023-12-22T00:21:36;3.50;99.90
82231;DHT22;71832;45.138;9.816;2023-12-22T00:24:05;3.50;99.90
82231;DHT22;71832;45.138;9.816;2023-12-22T00:26:34;3.40;99.90
82231;DHT22;71832;45.138;9.816;2023-12-22T00:29:03;3.40;99.90
82231;DHT22;71832;45.138;9.816;2023-12-22T00:31:30;3.50;99.90
82231;DHT22;71832;45.138;9.816;2023-12-22T00:33:58;3.50;99.90
82231;DHT22;71832;45.138;9.816;2023-12-22T00:36:28;3.50;99.90
82231;DHT22;71832;45.138;9.816;2023-12-22T00:38:57;3.60;99.70
82231;DHT22;71832;45.138;9.816;2023-12-22T00:41:25;3.60;99.10
82231;DHT22;71832;45.138;9.816;2023-12-22T00:43:54;3.60;99.20
82231;DHT22;71832;45.138;9.816;2023-12-22T00:46:23;3.60;99.00
82231;DHT22;71832;45.138;9.816;2023-12-22T00:48:51;3.70;99.90
82231;DHT22;71832;45.138;9.816;2023-12-22T00:51:19;3.80;99.90
82231;DHT22;71832;45.138;9.816;2023-12-22T00:53:48;3.90;99.90
82231;DHT22;71832;45.138;9.816;2023-12-22T00:56:17;3.90;99.00
82231;DHT22;71832;45.138;9.816;2023-12-22T00:58:46;3.90;98.70
82231;DHT22;71832;45.138;9.816;2023-12-22T01:01:14;3.90;98.90
82231;DHT22;71832;45.138;9.816;2023-12-22T01:03:43;3.80;99.10
82231;DHT22;71832;45.138;9.816;2023-12-22T01:06:12;3.80;99.80
82231;DHT22;71832;45.138;9.816;2023-12-22T01:08:42;3.80;99.60
82231;DHT22;71832;45.138;9.816;2023-12-22T01:11:10;3.70;99.50
82231;DHT22;71832;45.138;9.816;2023-12-22T01:13:38;3.70;99.90
82231;DHT22;71832;45.138;9.816;2023-12-22T01:16:06;3.60;99.90
82231;DHT22;71832;45.138;9.816;2023-12-22T01:18:35;3.70;99.90
82231;DHT22;71832;45.138;9.816;2023-12-22T01:21:03;3.60;99.90
82231;DHT22;71832;45.138;9.816;2023-12-22T01:23:32;3.60;99.90
82231;DHT22;71832;45.138;9.816;2023-12-22T01:26:00;3.70;99.90
82231;DHT22;71832;45.138;9.816;2023-12-22T01:28:27;3.70;99.60
82231;DHT22;71832;45.138;9.816;2023-12-22T01:30:56;3.70;99.90
82231;DHT22;71832;45.138;9.816;2023-12-22T01:33:24;3.80;99.90
82231;DHT22;71832;45.138;9.816;2023-12-22T01:35:53;3.90;99.30
82231;DHT22;71832;45.138;9.816;2023-12-22T01:38:22;4.00;99.50
82231;DHT22;71832;45.138;9.816;2023-12-22T01:40:51;4.00;99.10
82231;DHT22;71832;45.138;9.816;2023-12-22T01:43:19;4.10;99.00
82231;DHT22;71832;45.138;9.816;2023-12-22T01:45:51;4.10;99.10
82231;DHT22;71832;45.138;9.816;2023-12-22T01:48:21;4.10;99.00
82231;DHT22;71832;45.138;9.816;2023-12-22T01:50:51;4.20;98.90
82231;DHT22;71832;45.138;9.816;2023-12-22T01:53:20;4.20;99.00
82231;DHT22;71832;45.138;9.816;2023-12-22T01:55:50;4.20;99.20
82231;DHT22;71832;45.138;9.816;2023-12-22T01:58:22;4.20;98.80
82231;DHT22;71832;45.138;9.816;2023-12-22T02:00:53;4.30;97.90
82231;DHT22;71832;45.138;9.816;2023-12-22T02:03:22;4.30;97.70
82231;DHT22;71832;45.138;9.816;2023-12-22T02:05:51;4.30;98.30
82231;DHT22;71832;45.138;9.816;2023-12-22T02:08:21;4.30;98.40
82231;DHT22;71832;45.138;9.816;2023-12-22T02:10:50;4.40;98.60
82231;DHT22;71832;45.138;9.816;2023-12-22T02:13:19;4.40;98.20
82231;DHT22;71832;45.138;9.816;2023-12-22T02:15:49;4.40;98.20
82231;DHT22;71832;45.138;9.816;2023-12-22T02:18:25;4.50;97.90
82231;DHT22;71832;45.138;9.816;2023-12-22T02:20:55;4.50;97.80
82231;DHT22;71832;45.138;9.816;2023-12-22T02:23:24;4.50;97.90
82231;DHT22;71832;45.138;9.816;2023-12-22T02:25:57;4.50;98.30
82231;DHT22;71832;45.138;9.816;2023-12-22T02:28:26;4.50;98.20
82231;DHT22;71832;45.138;9.816;2023-12-22T02:31:04;4.50;98.00
82231;DHT22;71832;45.138;9.816;2023-12-22T02:33:40;4.60;98.10
82231;DHT22;71832;45.138;9.816;2023-12-22T02:36:10;4.70;97.80
82231;DHT22;71832;45.138;9.816;2023-12-22T02:38:40;4.70;97.50
82231;DHT22;71832;45.138;9.816;2023-12-22T02:41:11;4.70;97.30
82231;DHT22;71832;45.138;9.816;2023-12-22T02:43:40;4.70;97.10
82231;DHT22;71832;45.138;9.816;2023-12-22T02:46:14;4.70;96.80
82231;DHT22;71832;45.138;9.816;2023-12-22T02:48:43;4.70;96.50
82231;DHT22;71832;45.138;9.816;2023-12-22T02:51:12;4.70;96.50
82231;DHT22;71832;45.138;9.816;2023-12-22T02:53:40;4.60;96.70
82231;DHT22;71832;45.138;9.816;2023-12-22T02:56:09;4.60;96.60
82231;DHT22;71832;45.138;9.816;2023-12-22T02:58:38;4.50;96.70
82231;DHT22;71832;45.138;9.816;2023-12-22T03:01:06;4.50;97.00
82231;DHT22;71832;45.138;9.816;2023-12-22T03:03:35;4.50;97.30
82231;DHT22;71832;45.138;9.816;2023-12-22T03:06:04;4.50;97.00
82231;DHT22;71832;45.138;9.816;2023-12-22T03:08:32;4.40;96.70
82231;DHT22;71832;45.138;9.816;2023-12-22T03:11:01;4.40;96.10
82231;DHT22;71832;45.138;9.816;2023-12-22T03:13:29;4.40;95.90
82231;DHT22;71832;45.138;9.816;2023-12-22T03:15:58;4.30;96.00
82231;DHT22;71832;45.138;9.816;2023-12-22T03:18:26;4.40;95.90
82231;DHT22;71832;45.138;9.816;2023-12-22T03:20:55;4.40;95.90
82231;DHT22;71832;45.138;9.816;2023-12-22T03:23:24;4.40;95.40
82231;DHT22;71832;45.138;9.816;2023-12-22T03:25:52;4.40;95.30
82231;DHT22;71832;45.138;9.816;2023-12-22T03:28:21;4.50;94.90
82231;DHT22;71832;45.138;9.816;2023-12-22T03:30:50;4.50;94.50
82231;DHT22;71832;45.138;9.816;2023-12-22T03:33:18;4.50;94.30
82231;DHT22;71832;45.138;9.816;2023-12-22T03:35:46;4.70;93.40
82231;DHT22;71832;45.138;9.816;2023-12-22T03:38:15;4.90;92.60
82231;DHT22;71832;45.138;9.816;2023-12-22T03:40:44;4.90;92.00
82231;DHT22;71832;45.138;9.816;2023-12-22T03:43:12;5.00;91.50
82231;DHT22;71832;45.138;9.816;2023-12-22T03:45:39;5.00;91.00
82231;DHT22;71832;45.138;9.816;2023-12-22T03:48:07;5.10;91.00
82231;DHT22;71832;45.138;9.816;2023-12-22T03:50:36;5.10;90.10
82231;DHT22;71832;45.138;9.816;2023-12-22T03:53:05;5.10;90.20
82231;DHT22;71832;45.138;9.816;2023-12-22T03:55:33;5.00;90.70
82231;DHT22;71832;45.138;9.816;2023-12-22T03:58:02;5.00;90.50
82231;DHT22;71832;45.138;9.816;2023-12-22T04:00:32;5.00;90.50
82231;DHT22;71832;45.138;9.816;2023-12-22T04:03:00;4.90;90.60
82231;DHT22;71832;45.138;9.816;2023-12-22T04:05:29;5.00;90.90
82231;DHT22;71832;45.138;9.816;2023-12-22T04:07:57;5.00;90.50
82231;DHT22;71832;45.138;9.816;2023-12-22T04:10:26;5.00;90.70
82231;DHT22;71832;45.138;9.816;2023-12-22T04:12:54;5.00;90.60
82231;DHT22;71832;45.138;9.816;2023-12-22T04:15:22;5.00;90.50
82231;DHT22;71832;45.138;9.816;2023-12-22T04:17:51;5.00;90.00
82231;DHT22;71832;45.138;9.816;2023-12-22T04:20:19;5.00;90.00
82231;DHT22;71832;45.138;9.816;2023-12-22T04:22:47;5.00;90.00
82231;DHT22;71832;45.138;9.816;2023-12-22T04:25:16;5.00;89.80
82231;DHT22;71832;45.138;9.816;2023-12-22T04:27:45;5.00;89.80
82231;DHT22;71832;45.138;9.816;2023-12-22T04:30:14;5.00;89.60
82231;DHT22;71832;45.138;9.816;2023-12-22T04:32:42;5.00;89.20
82231;DHT22;71832;45.138;9.816;2023-12-22T04:35:10;5.00;89.40
82231;DHT22;71832;45.138;9.816;2023-12-22T04:37:38;5.10;89.30
82231;DHT22;71832;45.138;9.816;2023-12-22T04:40:07;5.10;89.00
82231;DHT22;71832;45.138;9.816;2023-12-22T04:42:34;5.10;88.80
82231;DHT22;71832;45.138;9.816;2023-12-22T04:45:03;5.10;88.50
82231;DHT22;71832;45.138;9.816;2023-12-22T04:47:31;5.20;88.20
82231;DHT22;71832;45.138;9.816;2023-12-22T04:49:59;5.20;87.60
82231;DHT22;71832;45.138;9.816;2023-12-22T04:52:27;5.30;87.30
82231;DHT22;71832;45.138;9.816;2023-12-22T04:54:55;5.30;87.10
82231;DHT22;71832;45.138;9.816;2023-12-22T04:57:23;5.30;86.50
82231;DHT22;71832;45.138;9.816;2023-12-22T04:59:51;5.30;86.40
82231;DHT22;71832;45.138;9.816;2023-12-22T05:02:19;5.40;86.20
82231;DHT22;71832;45.138;9.816;2023-12-22T05:04:46;5.40;86.00
82231;DHT22;71832;45.138;9.816;2023-12-22T05:07:14;5.30;86.00
82231;DHT22;71832;45.138;9.816;2023-12-22T05:09:42;5.30;86.30
82231;DHT22;71832;45.138;9.816;2023-12-22T05:12:10;5.30;86.60
82231;DHT22;71832;45.138;9.816;2023-12-22T05:14:39;5.30;86.00
82231;DHT22;71832;45.138;9.816;2023-12-22T05:17:07;5.30;85.80
82231;DHT22;71832;45.138;9.816;2023-12-22T05:19:35;5.20;86.10
82231;DHT22;71832;45.138;9.816;2023-12-22T05:22:05;5.10;86.10
82231;DHT22;71832;45.138;9.816;2023-12-22T05:24:33;5.20;86.10
82231;DHT22;71832;45.138;9.816;2023-12-22T05:27:02;5.30;86.10
82231;DHT22;71832;45.138;9.816;2023-12-22T05:29:31;5.30;86.00
82231;DHT22;71832;45.138;9.816;2023-12-22T05:32:00;5.40;86.00
82231;DHT22;71832;45.138;9.816;2023-12-22T05:34:29;5.50;85.70
82231;DHT22;71832;45.138;9.816;2023-12-22T05:36:58;5.50;85.20
82231;DHT22;71832;45.138;9.816;2023-12-22T05:39:27;5.50;84.70
82231;DHT22;71832;45.138;9.816;2023-12-22T05:41:55;5.50;84.60
82231;DHT22;71832;45.138;9.816;2023-12-22T05:44:24;5.50;84.40
82231;DHT22;71832;45.138;9.816;2023-12-22T05:46:57;5.50;84.00
82231;DHT22;71832;45.138;9.816;2023-12-22T05:49:26;5.50;83.90
82231;DHT22;71832;45.138;9.816;2023-12-22T05:51:54;5.50;83.00
82231;DHT22;71832;45.138;9.816;2023-12-22T05:54:22;5.60;82.60
82231;DHT22;71832;45.138;9.816;2023-12-22T05:56:52;5.70;81.90
82231;DHT22;71832;45.138;9.816;2023-12-22T05:59:21;5.70;81.20
82231;DHT22;71832;45.138;9.816;2023-12-22T06:01:54;5.80;80.80
82231;DHT22;71832;45.138;9.816;2023-12-22T06:04:22;5.90;80.70
82231;DHT22;71832;45.138;9.816;2023-12-22T06:06:51;5.80;80.50
82231;DHT22;71832;45.138;9.816;2023-12-22T06:09:20;5.80;80.50
82231;DHT22;71832;45.138;9.816;2023-12-22T06:11:49;5.80;80.70
82231;DHT22;71832;45.138;9.816;2023-12-22T06:14:16;5.80;80.30
82231;DHT22;71832;45.138;9.816;2023-12-22T06:16:44;5.90;80.00
82231;DHT22;71832;45.138;9.816;2023-12-22T06:19:11;5.90;79.60
82231;DHT22;71832;45.138;9.816;2023-12-22T06:21:40;6.00;79.30
82231;DHT22;71832;45.138;9.816;2023-12-22T06:24:08;6.00;79.30
82231;DHT22;71832;45.138;9.816;2023-12-22T06:26:36;6.00;79.20
82231;DHT22;71832;45.138;9.816;2023-12-22T06:29:04;6.00;78.50
82231;DHT22;71832;45.138;9.816;2023-12-22T06:31:32;6.10;78.30
82231;DHT22;71832;45.138;9.816;2023-12-22T06:34:00;6.10;78.40
82231;DHT22;71832;45.138;9.816;2023-12-22T06:36:30;6.10;78.50
82231;DHT22;71832;45.138;9.816;2023-12-22T06:38:58;6.00;78.40
82231;DHT22;71832;45.138;9.816;2023-12-22T06:41:28;6.00;78.10
82231;DHT22;71832;45.138;9.816;2023-12-22T06:43:58;6.00;77.70
82231;DHT22;71832;45.138;9.816;2023-12-22T06:46:27;6.00;77.30
82231;DHT22;71832;45.138;9.816;2023-12-22T06:48:56;6.00;76.50
82231;DHT22;71832;45.138;9.816;2023-12-22T06:51:26;6.10;76.20
82231;DHT22;71832;45.138;9.816;2023-12-22T06:53:55;6.00;76.40
82231;DHT22;71832;45.138;9.816;2023-12-22T06:56:25;6.10;74.90
82231;DHT22;71832;45.138;9.816;2023-12-22T06:58:55;6.20;74.30
82231;DHT22;71832;45.138;9.816;2023-12-22T07:01:28;6.20;73.90
82231;DHT22;71832;45.138;9.816;2023-12-22T07:03:58;6.40;73.30
82231;DHT22;71832;45.138;9.816;2023-12-22T07:06:28;6.50;72.80
82231;DHT22;71832;45.138;9.816;2023-12-22T07:09:27;6.60;71.80
82231;DHT22;71832;45.138;9.816;2023-12-22T07:14:15;6.90;70.40
82231;DHT22;71832;45.138;9.816;2023-12-22T07:16:44;7.00;70.00
82231;DHT22;71832;45.138;9.816;2023-12-22T07:19:13;7.20;70.40
82231;DHT22;71832;45.138;9.816;2023-12-22T07:21:41;7.30;70.70
82231;DHT22;71832;45.138;9.816;2023-12-22T07:24:10;7.50;70.80
82231;DHT22;71832;45.138;9.816;2023-12-22T07:26:39;7.50;70.70
82231;DHT22;71832;45.138;9.816;2023-12-22T07:29:07;7.60;69.90
82231;DHT22;71832;45.138;9.816;2023-12-22T07:31:36;7.80;68.90
82231;DHT22;71832;45.138;9.816;2023-12-22T07:34:06;7.90;68.00
82231;DHT22;71832;45.138;9.816;2023-12-22T07:36:34;8.00;67.10
82231;DHT22;71832;45.138;9.816;2023-12-22T07:39:03;8.10;68.20
82231;DHT22;71832;45.138;9.816;2023-12-22T07:41:33;8.10;67.60
82231;DHT22;71832;45.138;9.816;2023-12-22T07:44:01;8.20;68.10
82231;DHT22;71832;45.138;9.816;2023-12-22T07:46:29;8.20;67.60
82231;DHT22;71832;45.138;9.816;2023-12-22T07:48:58;8.30;68.20
82231;DHT22;71832;45.138;9.816;2023-12-22T07:51:26;8.30;69.50
82231;DHT22;71832;45.138;9.816;2023-12-22T07:53:54;8.30;70.00
82231;DHT22;71832;45.138;9.816;2023-12-22T07:56:23;8.20;70.30
82231;DHT22;71832;45.138;9.816;2023-12-22T07:58:52;8.20;70.40
82231;DHT22;71832;45.138;9.816;2023-12-22T08:01:20;8.20;69.70
82231;DHT22;71832;45.138;9.816;2023-12-22T08:03:49;8.30;69.90
82231;DHT22;71832;45.138;9.816;2023-12-22T08:06:18;8.40;70.10
82231;DHT22;71832;45.138;9.816;2023-12-22T08:08:47;8.40;71.60
82231;DHT22;71832;45.138;9.816;2023-12-22T08:11:15;8.30;71.90
82231;DHT22;71832;45.138;9.816;2023-12-22T08:13:43;8.30;72.60
82231;DHT22;71832;45.138;9.816;2023-12-22T08:16:11;8.20;72.10
82231;DHT22;71832;45.138;9.816;2023-12-22T08:18:39;8.30;71.00
82231;DHT22;71832;45.138;9.816;2023-12-22T08:21:08;8.30;71.50
82231;DHT22;71832;45.138;9.816;2023-12-22T08:23:36;8.50;69.50
82231;DHT22;71832;45.138;9.816;2023-12-22T08:26:04;8.80;68.20
82231;DHT22;71832;45.138;9.816;2023-12-22T08:28:32;9.00;67.30
82231;DHT22;71832;45.138;9.816;2023-12-22T08:30:59;9.20;66.70
82231;DHT22;71832;45.138;9.816;2023-12-22T08:33:28;9.40;65.80
82231;DHT22;71832;45.138;9.816;2023-12-22T08:35:55;9.60;64.20
82231;DHT22;71832;45.138;9.816;2023-12-22T08:38:23;9.80;63.50
82231;DHT22;71832;45.138;9.816;2023-12-22T08:40:51;10.10;62.10
82231;DHT22;71832;45.138;9.816;2023-12-22T08:43:19;10.30;60.00
82231;DHT22;71832;45.138;9.816;2023-12-22T08:45:47;10.70;58.30
82231;DHT22;71832;45.138;9.816;2023-12-22T08:48:15;11.00;57.80
82231;DHT22;71832;45.138;9.816;2023-12-22T08:50:43;11.20;56.70
82231;DHT22;71832;45.138;9.816;2023-12-22T08:53:12;11.50;55.80
82231;DHT22;71832;45.138;9.816;2023-12-22T08:55:41;11.70;56.60
82231;DHT22;71832;45.138;9.816;2023-12-22T08:58:09;11.80;57.10
82231;DHT22;71832;45.138;9.816;2023-12-22T09:00:38;11.90;56.10
82231;DHT22;71832;45.138;9.816;2023-12-22T09:03:06;12.00;55.90
82231;DHT22;71832;45.138;9.816;2023-12-22T09:05:34;12.00;56.20
82231;DHT22;71832;45.138;9.816;2023-12-22T09:08:02;12.00;55.90
82231;DHT22;71832;45.138;9.816;2023-12-22T09:10:29;12.00;55.20
82231;DHT22;71832;45.138;9.816;2023-12-22T09:12:57;12.10;55.00
82231;DHT22;71832;45.138;9.816;2023-12-22T09:15:26;12.10;55.90
82231;DHT22;71832;45.138;9.816;2023-12-22T09:17:55;12.10;55.10
82231;DHT22;71832;45.138;9.816;2023-12-22T09:20:24;12.20;55.10
82231;DHT22;71832;45.138;9.816;2023-12-22T09:22:52;12.30;54.20
82231;DHT22;71832;45.138;9.816;2023-12-22T09:25:23;12.40;56.10
82231;DHT22;71832;45.138;9.816;2023-12-22T09:27:53;12.50;55.20
82231;DHT22;71832;45.138;9.816;2023-12-22T09:30:24;12.50;55.70
82231;DHT22;71832;45.138;9.816;2023-12-22T09:32:52;12.60;54.60
82231;DHT22;71832;45.138;9.816;2023-12-22T09:35:19;12.70;56.00
82231;DHT22;71832;45.138;9.816;2023-12-22T09:37:47;12.70;57.50
82231;DHT22;71832;45.138;9.816;2023-12-22T09:40:14;12.70;57.70
82231;DHT22;71832;45.138;9.816;2023-12-22T09:42:42;12.80;59.50
82231;DHT22;71832;45.138;9.816;2023-12-22T09:45:12;12.80;59.10
82231;DHT22;71832;45.138;9.816;2023-12-22T09:47:43;12.80;59.30
82231;DHT22;71832;45.138;9.816;2023-12-22T09:50:12;12.80;62.00
82231;DHT22;71832;45.138;9.816;2023-12-22T09:52:42;12.70;60.60
82231;DHT22;71832;45.138;9.816;2023-12-22T09:55:13;12.60;60.60
82231;DHT22;71832;45.138;9.816;2023-12-22T09:57:42;12.50;60.40
82231;DHT22;71832;45.138;9.816;2023-12-22T10:00:11;12.50;60.50
82231;DHT22;71832;45.138;9.816;2023-12-22T10:02:40;12.50;60.00
82231;DHT22;71832;45.138;9.816;2023-12-22T10:05:10;12.50;62.10
82231;DHT22;71832;45.138;9.816;2023-12-22T10:07:41;12.70;61.30
82231;DHT22;71832;45.138;9.816;2023-12-22T10:10:13;12.80;61.40
82231;DHT22;71832;45.138;9.816;2023-12-22T10:12:44;12.90;59.00
82231;DHT22;71832;45.138;9.816;2023-12-22T10:15:13;13.10;58.00
82231;DHT22;71832;45.138;9.816;2023-12-22T10:17:43;13.10;58.50
82231;DHT22;71832;45.138;9.816;2023-12-22T10:20:11;13.30;57.00
82231;DHT22;71832;45.138;9.816;2023-12-22T10:22:40;13.50;56.10
82231;DHT22;71832;45.138;9.816;2023-12-22T10:25:09;13.50;55.60
82231;DHT22;71832;45.138;9.816;2023-12-22T10:27:37;13.60;55.20
82231;DHT22;71832;45.138;9.816;2023-12-22T10:30:05;13.70;54.90
82231;DHT22;71832;45.138;9.816;2023-12-22T10:32:34;13.70;53.90
82231;DHT22;71832;45.138;9.816;2023-12-22T10:35:08;13.70;52.20
82231;DHT22;71832;45.138;9.816;2023-12-22T10:37:36;13.90;51.90
82231;DHT22;71832;45.138;9.816;2023-12-22T10:40:05;13.90;52.80
82231;DHT22;71832;45.138;9.816;2023-12-22T10:42:35;13.90;53.80
82231;DHT22;71832;45.138;9.816;2023-12-22T10:45:04;13.90;54.50
82231;DHT22;71832;45.138;9.816;2023-12-22T10:47:32;13.90;54.40
82231;DHT22;71832;45.138;9.816;2023-12-22T10:50:03;13.80;55.80
82231;DHT22;71832;45.138;9.816;2023-12-22T10:52:31;13.90;53.10
82231;DHT22;71832;45.138;9.816;2023-12-22T10:55:00;13.90;53.20
82231;DHT22;71832;45.138;9.816;2023-12-22T10:57:29;14.00;53.50
82231;DHT22;71832;45.138;9.816;2023-12-22T11:00:06;14.00;53.70
82231;DHT22;71832;45.138;9.816;2023-12-22T11:02:36;14.10;52.20
82231;DHT22;71832;45.138;9.816;2023-12-22T11:05:11;14.20;50.80
82231;DHT22;71832;45.138;9.816;2023-12-22T11:07:42;14.20;48.70
82231;DHT22;71832;45.138;9.816;2023-12-22T11:10:14;14.30;49.10
82231;DHT22;71832;45.138;9.816;2023-12-22T11:12:47;14.30;50.10
82231;DHT22;71832;45.138;9.816;2023-12-22T11:15:17;14.40;48.80
82231;DHT22;71832;45.138;9.816;2023-12-22T11:17:47;14.60;47.90
82231;DHT22;71832;45.138;9.816;2023-12-22T11:20:17;14.70;48.30
82231;DHT22;71832;45.138;9.816;2023-12-22T11:22:45;14.80;46.70
82231;DHT22;71832;45.138;9.816;2023-12-22T11:25:15;14.80;46.70
82231;DHT22;71832;45.138;9.816;2023-12-22T11:27:44;14.90;49.40
82231;DHT22;71832;45.138;9.816;2023-12-22T11:30:15;15.00;50.50
82231;DHT22;71832;45.138;9.816;2023-12-22T11:32:45;15.00;49.30
82231;DHT22;71832;45.138;9.816;2023-12-22T11:35:12;15.00;48.90
82231;DHT22;71832;45.138;9.816;2023-12-22T11:37:42;15.00;48.60
82231;DHT22;71832;45.138;9.816;2023-12-22T11:40:11;15.00;47.90
82231;DHT22;71832;45.138;9.816;2023-12-22T11:42:43;15.00;49.80
82231;DHT22;71832;45.138;9.816;2023-12-22T11:45:13;15.00;48.60
82231;DHT22;71832;45.138;9.816;2023-12-22T11:47:43;15.00;49.30
82231;DHT22;71832;45.138;9.816;2023-12-22T11:50:11;15.10;48.10
82231;DHT22;71832;45.138;9.816;2023-12-22T11:52:40;15.10;48.80
82231;DHT22;71832;45.138;9.816;2023-12-22T11:55:08;15.20;45.90
82231;DHT22;71832;45.138;9.816;2023-12-22T11:57:38;15.20;47.30
82231;DHT22;71832;45.138;9.816;2023-12-22T12:00:08;15.30;47.00
82231;DHT22;71832;45.138;9.816;2023-12-22T12:02:39;15.30;47.30
82231;DHT22;71832;45.138;9.816;2023-12-22T12:05:11;15.30;47.70
82231;DHT22;71832;45.138;9.816;2023-12-22T12:10:36;15.30;45.70
82231;DHT22;71832;45.138;9.816;2023-12-22T12:15:35;15.40;47.20
82231;DHT22;71832;45.138;9.816;2023-12-22T12:18:04;15.50;47.00
82231;DHT22;71832;45.138;9.816;2023-12-22T12:20:33;15.50;46.20
82231;DHT22;71832;45.138;9.816;2023-12-22T12:23:02;15.50;47.80
82231;DHT22;71832;45.138;9.816;2023-12-22T12:25:33;15.50;48.50
82231;DHT22;71832;45.138;9.816;2023-12-22T12:28:02;15.50;47.90
82231;DHT22;71832;45.138;9.816;2023-12-22T12:30:32;15.50;48.00
82231;DHT22;71832;45.138;9.816;2023-12-22T12:33:08;15.60;49.70
82231;DHT22;71832;45.138;9.816;2023-12-22T12:35:38;15.50;48.90
82231;DHT22;71832;45.138;9.816;2023-12-22T12:38:05;15.60;49.70
82231;DHT22;71832;45.138;9.816;2023-12-22T12:40:34;15.60;49.50
82231;DHT22;71832;45.138;9.816;2023-12-22T12:43:05;15.60;51.80
82231;DHT22;71832;45.138;9.816;2023-12-22T12:45:34;15.60;49.60
82231;DHT22;71832;45.138;9.816;2023-12-22T12:48:03;15.60;49.70
82231;DHT22;71832;45.138;9.816;2023-12-22T12:50:31;15.60;49.90
82231;DHT22;71832;45.138;9.816;2023-12-22T12:53:00;15.60;50.10
82231;DHT22;71832;45.138;9.816;2023-12-22T12:55:30;15.60;49.20
82231;DHT22;71832;45.138;9.816;2023-12-22T12:57:59;15.70;48.60
82231;DHT22;71832;45.138;9.816;2023-12-22T13:00:30;15.70;47.80
82231;DHT22;71832;45.138;9.816;2023-12-22T13:05:32;15.70;48.60
82231;DHT22;71832;45.138;9.816;2023-12-22T13:08:20;15.80;47.60
82231;DHT22;71832;45.138;9.816;2023-12-22T13:10:48;15.80;48.40
82231;DHT22;71832;45.138;9.816;2023-12-22T13:13:16;15.80;47.50
82231;DHT22;71832;45.138;9.816;2023-12-22T13:15:44;15.80;47.60
82231;DHT22;71832;45.138;9.816;2023-12-22T13:18:12;15.80;47.90
82231;DHT22;71832;45.138;9.816;2023-12-22T13:20:40;15.80;47.70
82231;DHT22;71832;45.138;9.816;2023-12-22T13:23:09;15.80;48.10
82231;DHT22;71832;45.138;9.816;2023-12-22T13:25:39;15.80;47.00
82231;DHT22;71832;45.138;9.816;2023-12-22T13:28:07;15.80;47.40
82231;DHT22;71832;45.138;9.816;2023-12-22T13:30:36;15.80;48.20
82231;DHT22;71832;45.138;9.816;2023-12-22T13:33:08;15.80;48.30
82231;DHT22;71832;45.138;9.816;2023-12-22T13:35:38;15.80;48.80
82231;DHT22;71832;45.138;9.816;2023-12-22T13:38:07;15.80;48.20
82231;DHT22;71832;45.138;9.816;2023-12-22T13:40:36;15.80;49.40
82231;DHT22;71832;45.138;9.816;2023-12-22T13:43:05;15.60;50.70
82231;DHT22;71832;45.138;9.816;2023-12-22T13:45:34;15.60;51.30
82231;DHT22;71832;45.138;9.816;2023-12-22T13:48:03;15.50;52.80
82231;DHT22;71832;45.138;9.816;2023-12-22T13:50:32;15.50;53.90
82231;DHT22;71832;45.138;9.816;2023-12-22T13:53:12;15.50;54.90
82231;DHT22;71832;45.138;9.816;2023-12-22T13:55:41;15.40;54.90
82231;DHT22;71832;45.138;9.816;2023-12-22T13:58:09;15.30;54.80
82231;DHT22;71832;45.138;9.816;2023-12-22T14:00:39;15.30;54.80
82231;DHT22;71832;45.138;9.816;2023-12-22T14:03:10;15.20;54.10
82231;DHT22;71832;45.138;9.816;2023-12-22T14:05:39;15.20;54.20
82231;DHT22;71832;45.138;9.816;2023-12-22T14:08:07;15.10;54.20
82231;DHT22;71832;45.138;9.816;2023-12-22T14:10:36;15.00;53.60
82231;DHT22;71832;45.138;9.816;2023-12-22T14:13:06;15.00;54.40
82231;DHT22;71832;45.138;9.816;2023-12-22T14:15:34;15.00;53.90
82231;DHT22;71832;45.138;9.816;2023-12-22T14:18:03;14.90;53.50
82231;DHT22;71832;45.138;9.816;2023-12-22T14:20:31;14.90;54.10
82231;DHT22;71832;45.138;9.816;2023-12-22T14:23:00;14.90;54.00
82231;DHT22;71832;45.138;9.816;2023-12-22T14:25:28;14.80;53.50
82231;DHT22;71832;45.138;9.816;2023-12-22T14:27:57;14.80;54.20
82231;DHT22;71832;45.138;9.816;2023-12-22T14:30:26;14.70;54.40
82231;DHT22;71832;45.138;9.816;2023-12-22T14:32:54;14.70;55.00
82231;DHT22;71832;45.138;9.816;2023-12-22T14:35:23;14.60;54.10
82231;DHT22;71832;45.138;9.816;2023-12-22T14:37:51;14.60;54.90
82231;DHT22;71832;45.138;9.816;2023-12-22T14:40:20;14.50;55.10
82231;DHT22;71832;45.138;9.816;2023-12-22T14:42:48;14.40;56.30
82231;DHT22;71832;45.138;9.816;2023-12-22T14:45:16;14.30;57.20
82231;DHT22;71832;45.138;9.816;2023-12-22T14:47:45;14.20;56.90
82231;DHT22;71832;45.138;9.816;2023-12-22T14:50:14;14.10;55.80
82231;DHT22;71832;45.138;9.816;2023-12-22T14:52:41;14.10;56.40
82231;DHT22;71832;45.138;9.816;2023-12-22T14:55:10;14.00;56.50
82231;DHT22;71832;45.138;9.816;2023-12-22T14:57:38;14.00;56.70
82231;DHT22;71832;45.138;9.816;2023-12-22T15:00:06;13.90;56.60
82231;DHT22;71832;45.138;9.816;2023-12-22T15:02:36;13.90;56.80
82231;DHT22;71832;45.138;9.816;2023-12-22T15:05:04;13.70;56.60
82231;DHT22;71832;45.138;9.816;2023-12-22T15:07:32;13.60;57.10
82231;DHT22;71832;45.138;9.816;2023-12-22T15:10:00;13.60;57.20
82231;DHT22;71832;45.138;9.816;2023-12-22T15:12:33;13.50;57.20
82231;DHT22;71832;45.138;9.816;2023-12-22T15:15:04;13.40;57.00
82231;DHT22;71832;45.138;9.816;2023-12-22T15:17:32;13.30;56.80
82231;DHT22;71832;45.138;9.816;2023-12-22T15:20:00;13.30;57.00
82231;DHT22;71832;45.138;9.816;2023-12-22T15:22:30;13.20;57.30
82231;DHT22;71832;45.138;9.816;2023-12-22T15:24:58;13.10;57.50
82231;DHT22;71832;45.138;9.816;2023-12-22T15:27:26;13.10;57.70
82231;DHT22;71832;45.138;9.816;2023-12-22T15:29:55;13.00;57.80
82231;DHT22;71832;45.138;9.816;2023-12-22T15:32:25;12.90;57.90
82231;DHT22;71832;45.138;9.816;2023-12-22T15:34:53;12.80;58.40
82231;DHT22;71832;45.138;9.816;2023-12-22T15:37:21;12.70;58.20
82231;DHT22;71832;45.138;9.816;2023-12-22T15:39:50;12.50;58.70
82231;DHT22;71832;45.138;9.816;2023-12-22T15:42:17;12.50;58.70
82231;DHT22;71832;45.138;9.816;2023-12-22T15:44:44;12.40;58.70
82231;DHT22;71832;45.138;9.816;2023-12-22T15:47:12;12.30;57.80
82231;DHT22;71832;45.138;9.816;2023-12-22T15:49:40;12.30;57.40
82231;DHT22;71832;45.138;9.816;2023-12-22T15:52:09;12.20;57.10
82231;DHT22;71832;45.138;9.816;2023-12-22T15:54:39;12.20;56.90
82231;DHT22;71832;45.138;9.816;2023-12-22T15:57:07;12.20;56.90
82231;DHT22;71832;45.138;9.816;2023-12-22T15:59:36;12.10;56.50
82231;DHT22;71832;45.138;9.816;2023-12-22T16:02:04;12.10;56.20